sensor_id;sensor_type;location;lat;lon;timestamp;P1;durP1;ratioP1;P2;durP2;ratioP2
8171;SDS011;4127;47.908;10.850;2023-04-07T06:01:30;6.43;;;5.83;;
8171;SDS011;4127;47.908;10.850;2023-04-07T06:03:56;6.03;;;5.43;;
8171;SDS011;4127;47.908;10.850;2023-04-07T06:06:24;6.70;;;6.10;;
8171;SDS011;4127;47.908;10.850;2023-04-07T06:08:51;6.40;;;5.80;;
8171;SDS011;4127;47.908;10.850;2023-04-07T06:11:18;6.60;;;5.90;;
8171;SDS011;4127;47.908;10.850;2023-04-07T06:13:46;6.97;;;6.27;;
8171;SDS011;4127;47.908;10.850;2023-04-07T06:16:13;7.37;;;6.37;;
8171;SDS011;4127;47.908;10.850;2023-04-07T06:18:42;7.63;;;6.13;;
8171;SDS011;4127;47.908;10.850;2023-04-07T06:21:09;6.57;;;5.87;;
8171;SDS011;4127;47.908;10.850;2023-04-07T06:23:35;7.80;;;5.57;;
8171;SDS011;4127;47.908;10.850;2023-04-07T06:26:02;7.63;;;6.10;;
8171;SDS011;4127;47.908;10.850;2023-04-07T06:28:29;6.40;;;5.80;;
8171;SDS011;4127;47.908;10.850;2023-04-07T06:30:56;5.70;;;5.20;;
8171;SDS011;4127;47.908;10.850;2023-04-07T06:33:25;6.00;;;5.50;;
8171;SDS011;4127;47.908;10.850;2023-04-07T06:35:53;6.93;;;6.23;;
8171;SDS011;4127;47.908;10.850;2023-04-07T06:38:20;7.03;;;6.33;;
8171;SDS011;4127;47.908;10.850;2023-04-07T06:40:47;6.40;;;5.70;;
8171;SDS011;4127;47.908;10.850;2023-04-07T06:43:14;6.73;;;6.13;;
8171;SDS011;4127;47.908;10.850;2023-04-07T06:45:41;6.73;;;6.03;;
8171;SDS011;4127;47.908;10.850;2023-04-07T06:48:07;7.00;;;6.40;;
8171;SDS011;4127;47.908;10.850;2023-04-07T06:50:36;7.33;;;6.20;;
8171;SDS011;4127;47.908;10.850;2023-04-07T06:53:05;6.47;;;5.77;;
8171;SDS011;4127;47.908;10.850;2023-04-07T06:55:32;9.13;;;8.17;;
8171;SDS011;4127;47.908;10.850;2023-04-07T06:57:59;13.30;;;10.03;;
8171;SDS011;4127;47.908;10.850;2023-04-07T07:00:26;7.47;;;6.67;;
8171;SDS011;4127;47.908;10.850;2023-04-07T07:02:55;6.90;;;6.20;;
8171;SDS011;4127;47.908;10.850;2023-04-07T07:05:22;6.40;;;5.80;;
8171;SDS011;4127;47.908;10.850;2023-04-07T07:07:49;8.77;;;6.53;;
8171;SDS011;4127;47.908;10.850;2023-04-07T07:10:17;6.47;;;5.83;;
8171;SDS011;4127;47.908;10.850;2023-04-07T07:12:45;6.07;;;5.47;;
8171;SDS011;4127;47.908;10.850;2023-04-07T07:15:12;6.63;;;5.93;;
8171;SDS011;4127;47.908;10.850;2023-04-07T07:17:39;6.17;;;5.67;;
8171;SDS011;4127;47.908;10.850;2023-04-07T07:20:06;5.80;;;5.30;;
8171;SDS011;4127;47.908;10.850;2023-04-07T07:22:33;6.60;;;6.00;;
8171;SDS011;4127;47.908;10.850;2023-04-07T07:24:59;6.73;;;6.13;;
8171;SDS011;4127;47.908;10.850;2023-04-07T07:27:26;7.70;;;7.00;;
8171;SDS011;4127;47.908;10.850;2023-04-07T07:29:53;6.13;;;5.53;;
8171;SDS011;4127;47.908;10.850;2023-04-07T07:32:20;6.70;;;6.00;;
8171;SDS011;4127;47.908;10.850;2023-04-07T07:34:47;14.43;;;11.33;;
8171;SDS011;4127;47.908;10.850;2023-04-07T07:37:13;9.13;;;8.23;;
8171;SDS011;4127;47.908;10.850;2023-04-07T07:39:41;7.33;;;6.63;;
8171;SDS011;4127;47.908;10.850;2023-04-07T07:42:07;7.00;;;6.30;;
8171;SDS011;4127;47.908;10.850;2023-04-07T07:44:34;6.40;;;5.80;;
8171;SDS011;4127;47.908;10.850;2023-04-07T07:47:01;6.80;;;6.10;;
8171;SDS011;4127;47.908;10.850;2023-04-07T07:49:27;6.80;;;6.20;;
8171;SDS011;4127;47.908;10.850;2023-04-07T07:51:54;7.20;;;6.50;;
8171;SDS011;4127;47.908;10.850;2023-04-07T07:54:21;6.67;;;5.57;;
8171;SDS011;4127;47.908;10.850;2023-04-07T07:56:47;6.70;;;6.00;;
8171;SDS011;4127;47.908;10.850;2023-04-07T07:59:14;6.80;;;6.20;;
8171;SDS011;4127;47.908;10.850;2023-04-07T08:01:42;7.05;;;6.35;;
8171;SDS011;4127;47.908;10.850;2023-04-07T08:04:09;6.37;;;5.77;;
8171;SDS011;4127;47.908;10.850;2023-04-07T08:06:37;5.93;;;5.33;;
8171;SDS011;4127;47.908;10.850;2023-04-07T08:09:03;6.97;;;6.37;;
8171;SDS011;4127;47.908;10.850;2023-04-07T08:11:31;7.27;;;6.67;;
8171;SDS011;4127;47.908;10.850;2023-04-07T08:13:58;6.77;;;6.17;;
8171;SDS011;4127;47.908;10.850;2023-04-07T08:16:25;6.40;;;5.80;;
8171;SDS011;4127;47.908;10.850;2023-04-07T08:18:52;6.47;;;5.77;;
8171;SDS011;4127;47.908;10.850;2023-04-07T08:21:19;6.67;;;6.07;;
8171;SDS011;4127;47.908;10.850;2023-04-07T08:23:46;6.47;;;5.87;;
8171;SDS011;4127;47.908;10.850;2023-04-07T08:26:13;6.77;;;5.07;;
8171;SDS011;4127;47.908;10.850;2023-04-07T08:28:40;7.00;;;6.37;;
8171;SDS011;4127;47.908;10.850;2023-04-07T08:31:07;7.90;;;6.93;;
8171;SDS011;4127;47.908;10.850;2023-04-07T08:33:34;6.70;;;6.10;;
8171;SDS011;4127;47.908;10.850;2023-04-07T08:36:00;6.73;;;6.13;;
8171;SDS011;4127;47.908;10.850;2023-04-07T08:38:27;6.70;;;5.83;;
8171;SDS011;4127;47.908;10.850;2023-04-07T08:40:57;6.30;;;5.47;;
8171;SDS011;4127;47.908;10.850;2023-04-07T08:43:32;5.83;;;5.23;;
8171;SDS011;4127;47.908;10.850;2023-04-07T08:46:02;5.47;;;4.97;;
8171;SDS011;4127;47.908;10.850;2023-04-07T08:48:30;4.93;;;4.43;;
8171;SDS011;4127;47.908;10.850;2023-04-07T08:51:03;5.20;;;4.73;;
8171;SDS011;4127;47.908;10.850;2023-04-07T08:53:34;5.50;;;5.00;;
8171;SDS011;4127;47.908;10.850;2023-04-07T08:56:06;5.10;;;4.60;;
8171;SDS011;4127;47.908;10.850;2023-04-07T08:58:34;5.40;;;4.70;;
8171;SDS011;4127;47.908;10.850;2023-04-07T09:01:03;6.83;;;5.20;;
8171;SDS011;4127;47.908;10.850;2023-04-07T09:03:32;5.70;;;5.13;;
8171;SDS011;4127;47.908;10.850;2023-04-07T09:05:59;4.80;;;4.40;;
8171;SDS011;4127;47.908;10.850;2023-04-07T09:08:27;4.90;;;4.40;;
8171;SDS011;4127;47.908;10.850;2023-04-07T09:10:55;4.97;;;4.57;;
8171;SDS011;4127;47.908;10.850;2023-04-07T09:13:25;4.73;;;4.33;;
8171;SDS011;4127;47.908;10.850;2023-04-07T09:15:52;4.67;;;4.27;;
8171;SDS011;4127;47.908;10.850;2023-04-07T09:18:19;5.30;;;4.80;;
8171;SDS011;4127;47.908;10.850;2023-04-07T09:20:55;5.33;;;4.83;;
8171;SDS011;4127;47.908;10.850;2023-04-07T09:23:30;5.27;;;4.77;;
8171;SDS011;4127;47.908;10.850;2023-04-07T09:25:59;5.23;;;4.73;;
8171;SDS011;4127;47.908;10.850;2023-04-07T09:28:44;5.20;;;4.80;;
8171;SDS011;4127;47.908;10.850;2023-04-07T09:31:12;5.53;;;5.03;;
8171;SDS011;4127;47.908;10.850;2023-04-07T09:33:39;5.87;;;4.93;;
8171;SDS011;4127;47.908;10.850;2023-04-07T09:36:06;5.73;;;5.13;;
8171;SDS011;4127;47.908;10.850;2023-04-07T09:38:33;5.77;;;5.27;;
8171;SDS011;4127;47.908;10.850;2023-04-07T09:41:19;5.23;;;4.80;;
8171;SDS011;4127;47.908;10.850;2023-04-07T09:43:46;5.53;;;4.90;;
8171;SDS011;4127;47.908;10.850;2023-04-07T09:46:16;5.27;;;4.77;;
8171;SDS011;4127;47.908;10.850;2023-04-07T09:48:46;5.87;;;4.60;;
8171;SDS011;4127;47.908;10.850;2023-04-07T09:51:16;6.47;;;4.53;;
8171;SDS011;4127;47.908;10.850;2023-04-07T09:53:49;5.13;;;4.63;;
8171;SDS011;4127;47.908;10.850;2023-04-07T09:56:18;5.10;;;4.60;;
8171;SDS011;4127;47.908;10.850;2023-04-07T09:58:47;6.07;;;5.47;;
8171;SDS011;4127;47.908;10.850;2023-04-07T10:01:19;5.97;;;5.37;;
8171;SDS011;4127;47.908;10.850;2023-04-07T10:03:46;5.63;;;5.13;;
8171;SDS011;4127;47.908;10.850;2023-04-07T10:06:14;5.37;;;4.87;;
8171;SDS011;4127;47.908;10.850;2023-04-07T10:08:42;4.63;;;4.23;;
8171;SDS011;4127;47.908;10.850;2023-04-07T10:11:09;5.60;;;4.90;;
8171;SDS011;4127;47.908;10.850;2023-04-07T10:13:36;5.07;;;4.67;;
8171;SDS011;4127;47.908;10.850;2023-04-07T10:16:06;4.80;;;4.30;;
8171;SDS011;4127;47.908;10.850;2023-04-07T10:18:34;5.00;;;4.57;;
8171;SDS011;4127;47.908;10.850;2023-04-07T10:21:05;5.47;;;4.97;;
8171;SDS011;4127;47.908;10.850;2023-04-07T10:26:13;5.67;;;4.93;;
8171;SDS011;4127;47.908;10.850;2023-04-07T10:28:43;4.87;;;4.47;;
8171;SDS011;4127;47.908;10.850;2023-04-07T10:31:14;5.83;;;5.23;;
8171;SDS011;4127;47.908;10.850;2023-04-07T10:33:46;5.30;;;4.70;;
8171;SDS011;4127;47.908;10.850;2023-04-07T10:36:15;5.87;;;5.37;;
8171;SDS011;4127;47.908;10.850;2023-04-07T10:41:35;5.90;;;5.20;;
8171;SDS011;4127;47.908;10.850;2023-04-07T10:44:07;6.50;;;5.70;;
8171;SDS011;4127;47.908;10.850;2023-04-07T10:49:15;5.80;;;5.20;;
8171;SDS011;4127;47.908;10.850;2023-04-07T10:51:44;5.60;;;5.10;;
8171;SDS011;4127;47.908;10.850;2023-04-07T10:54:37;5.20;;;4.80;;
8171;SDS011;4127;47.908;10.850;2023-04-07T10:57:13;5.23;;;4.83;;
8171;SDS011;4127;47.908;10.850;2023-04-07T10:59:41;5.00;;;4.60;;
8171;SDS011;4127;47.908;10.850;2023-04-07T11:02:40;8.23;;;7.43;;
8171;SDS011;4127;47.908;10.850;2023-04-07T11:05:08;5.80;;;5.30;;
8171;SDS011;4127;47.908;10.850;2023-04-07T11:07:47;5.50;;;5.00;;
8171;SDS011;4127;47.908;10.850;2023-04-07T11:10:16;5.93;;;5.43;;
8171;SDS011;4127;47.908;10.850;2023-04-07T11:12:57;5.07;;;4.60;;
8171;SDS011;4127;47.908;10.850;2023-04-07T11:15:35;5.30;;;4.80;;
8171;SDS011;4127;47.908;10.850;2023-04-07T11:18:09;7.13;;;6.43;;
8171;SDS011;4127;47.908;10.850;2023-04-07T11:20:44;6.87;;;5.70;;
8171;SDS011;4127;47.908;10.850;2023-04-07T11:23:13;7.80;;;5.77;;
8171;SDS011;4127;47.908;10.850;2023-04-07T11:25:42;5.73;;;5.23;;
8171;SDS011;4127;47.908;10.850;2023-04-07T11:28:10;5.37;;;4.80;;
8171;SDS011;4127;47.908;10.850;2023-04-07T11:30:42;7.20;;;6.13;;
8171;SDS011;4127;47.908;10.850;2023-04-07T11:33:20;7.47;;;5.97;;
8171;SDS011;4127;47.908;10.850;2023-04-07T11:35:48;6.60;;;5.53;;
8171;SDS011;4127;47.908;10.850;2023-04-07T11:38:17;6.47;;;5.87;;
8171;SDS011;4127;47.908;10.850;2023-04-07T11:40:45;5.63;;;5.13;;
8171;SDS011;4127;47.908;10.850;2023-04-07T11:43:19;6.07;;;5.50;;
8171;SDS011;4127;47.908;10.850;2023-04-07T11:46:04;6.13;;;5.63;;
8171;SDS011;4127;47.908;10.850;2023-04-07T11:48:37;5.57;;;4.97;;
8171;SDS011;4127;47.908;10.850;2023-04-07T11:51:05;6.87;;;5.17;;
8171;SDS011;4127;47.908;10.850;2023-04-07T11:53:33;7.00;;;5.60;;
8171;SDS011;4127;47.908;10.850;2023-04-07T11:58:31;6.23;;;5.63;;
8171;SDS011;4127;47.908;10.850;2023-04-07T12:00:58;5.93;;;5.33;;
8171;SDS011;4127;47.908;10.850;2023-04-07T12:03:30;5.80;;;5.30;;
8171;SDS011;4127;47.908;10.850;2023-04-07T12:05:58;6.47;;;5.87;;
8171;SDS011;4127;47.908;10.850;2023-04-07T12:08:39;5.93;;;4.57;;
8171;SDS011;4127;47.908;10.850;2023-04-07T12:11:08;5.23;;;4.73;;
8171;SDS011;4127;47.908;10.850;2023-04-07T12:13:35;5.67;;;5.10;;
8171;SDS011;4127;47.908;10.850;2023-04-07T12:16:03;5.63;;;5.03;;
8171;SDS011;4127;47.908;10.850;2023-04-07T12:18:30;5.27;;;4.77;;
8171;SDS011;4127;47.908;10.850;2023-04-07T12:20:57;5.03;;;4.60;;
8171;SDS011;4127;47.908;10.850;2023-04-07T12:23:24;4.23;;;3.83;;
8171;SDS011;4127;47.908;10.850;2023-04-07T12:25:51;4.83;;;4.00;;
8171;SDS011;4127;47.908;10.850;2023-04-07T12:28:18;5.10;;;4.70;;
8171;SDS011;4127;47.908;10.850;2023-04-07T12:30:45;5.10;;;4.57;;
8171;SDS011;4127;47.908;10.850;2023-04-07T12:33:11;5.90;;;5.00;;
8171;SDS011;4127;47.908;10.850;2023-04-07T12:35:38;5.50;;;5.00;;
8171;SDS011;4127;47.908;10.850;2023-04-07T12:38:05;5.07;;;3.80;;
